Time;durP1;ratioP1;P1;durP2;ratioP2;P2;SDS_P1;SDS_P2;PMS_P1;PMS_P2;Temp;Humidity;BMP_temperature;BMP_pressure;BME280_temperature;BME280_humidity;BME280_pressure;Samples;Min_cycle;Max_cycle;Signal;HPM_P1;HPM_P2
2023/12/28 00:00:13;;;;;;;;;2.33;2.00;;;;;22.60;46.93;101146.03;4938732;28;45404;-79
2023/12/28 00:02:38;;;;;;;;;1.33;1.33;;;;;22.79;47.00;101181.91;4938851;28;45333;-79
2023/12/28 00:05:04;;;;;;;;;1.00;1.00;;;;;22.78;47.71;101164.31;4938598;28;46102;-80
2023/12/28 00:07:29;;;;;;;;;2.67;2.67;;;;;22.62;47.54;101151.97;4938604;28;45517;-79
2023/12/28 00:09:54;;;;;;;;;5.00;2.00;;;;;22.67;46.96;101165.53;4938082;28;54736;-79
2023/12/28 00:12:20;;;;;;;;;3.33;3.33;;;;;22.68;47.19;101163.69;4937584;28;57749;-79
2023/12/28 00:14:45;;;;;;;;;2.33;2.33;;;;;22.35;47.15;101114.38;4938523;28;46164;-79
2023/12/28 00:17:10;;;;;;;;;3.00;1.67;;;;;22.69;47.30;101171.47;4938443;28;46772;-79
2023/12/28 00:19:35;;;;;;;;;2.33;1.33;;;;;22.72;47.24;101173.81;4938593;28;45370;-79
2023/12/28 00:22:01;;;;;;;;;3.67;2.00;;;;;22.71;47.26;101182.78;4937984;28;53368;-79
2023/12/28 00:24:26;;;;;;;;;2.67;2.67;;;;;22.71;47.45;101190.75;4938327;28;45323;-78
2023/12/28 00:26:51;;;;;;;;;2.00;2.00;;;;;22.61;47.08;101161.75;4938050;28;45339;-79
2023/12/28 00:29:17;;;;;;;;;4.00;2.67;;;;;22.66;47.46;101168.38;4938390;28;45459;-80
2023/12/28 00:31:42;;;;;;;;;1.67;1.67;;;;;22.37;46.96;101130.94;4937241;28;45649;-79
2023/12/28 00:34:07;;;;;;;;;2.00;2.00;;;;;22.55;47.04;101158.97;4937745;28;56823;-79
2023/12/28 00:36:33;;;;;;;;;1.33;1.33;;;;;22.69;46.96;101183.94;4938165;28;45357;-78
2023/12/28 00:38:58;;;;;;;;;1.67;1.33;;;;;22.16;47.35;101101.41;4936995;28;45322;-79
2023/12/28 00:41:23;;;;;;;;;1.67;1.67;;;;;22.60;47.21;101165.41;4952740;28;45381;-78
2023/12/28 00:43:48;;;;;;;;;3.00;3.00;;;;;22.47;47.26;101152.75;4938115;28;45375;-78
2023/12/28 00:46:14;;;;;;;;;1.33;1.33;;;;;22.55;47.47;101167.78;4937957;28;45295;-79
2023/12/28 00:48:39;;;;;;;;;2.00;2.00;;;;;22.60;46.87;101165.41;4938104;28;45374;-79
2023/12/28 00:51:05;;;;;;;;;3.00;2.00;;;;;22.69;46.96;101181.28;4938010;28;45339;-79
2023/12/28 00:53:31;;;;;;;;;3.33;2.33;;;;;22.63;46.74;101177.50;4937867;28;47414;-79
2023/12/28 00:55:56;;;;;;;;;1.33;1.33;;;;;22.60;47.26;101183.16;4937673;28;45488;-79
2023/12/28 00:58:21;;;;;;;;;2.67;1.67;;;;;22.69;47.09;101194.53;4937874;28;45394;-78
2023/12/28 01:00:46;;;;;;;;;1.67;1.33;;;;;22.59;46.98;101178.84;4937858;28;45478;-79
2023/12/28 01:03:12;;;;;;;;;1.00;1.00;;;;;22.69;47.16;101198.00;4937676;28;46067;-79
2023/12/28 01:05:37;;;;;;;;;1.33;1.00;;;;;22.54;46.86;101174.06;4937392;28;57641;-79
2023/12/28 01:08:03;;;;;;;;;3.67;2.00;;;;;22.67;46.99;101194.69;4937600;28;46604;-80
2023/12/28 01:10:28;;;;;;;;;2.00;1.00;;;;;22.35;47.13;101154.94;4937365;28;45445;-79
2023/12/28 01:12:53;;;;;;;;;1.33;1.00;;;;;22.60;47.03;101197.25;4937363;28;46004;-79
2023/12/28 01:15:20;;;;;;;;;0.50;0.50;;;;;22.39;46.77;101168.69;4937781;28;45276;-79
2023/12/28 01:17:45;;;;;;;;;2.00;2.00;;;;;22.54;46.91;101189.97;4937805;28;45419;-79
2023/12/28 01:20:11;;;;;;;;;2.00;2.00;;;;;22.57;46.63;101194.94;4937572;28;45454;-79
2023/12/28 01:22:36;;;;;;;;;1.00;1.00;;;;;22.44;46.69;101189.38;4937192;28;47057;-79
2023/12/28 01:25:02;;;;;;;;;3.00;2.00;;;;;22.66;46.90;101221.41;4937625;28;45456;-80
2023/12/28 01:27:27;;;;;;;;;2.67;1.33;;;;;22.66;46.67;101219.59;4937616;28;45378;-79
2023/12/28 01:29:53;;;;;;;;;1.67;1.67;;;;;22.61;46.79;101214.78;4937572;28;45482;-79
2023/12/28 01:32:18;;;;;;;;;2.00;2.00;;;;;22.40;46.57;101178.31;4937486;28;45462;-79
2023/12/28 01:34:44;;;;;;;;;4.00;1.67;;;;;22.61;46.57;101220.09;4937045;28;56174;-80
2023/12/28 01:37:10;;;;;;;;;2.67;2.67;;;;;22.50;46.65;101207.25;4937149;28;45413;-79
2023/12/28 01:39:35;;;;;;;;;1.33;1.33;;;;;22.65;46.73;101225.88;4937512;28;45219;-79
2023/12/28 01:42:00;;;;;;;;;3.00;1.67;;;;;22.52;46.94;101210.53;4938683;28;45941;-80
2023/12/28 01:44:26;;;;;;;;;3.00;2.00;;;;;22.56;46.78;101217.13;4940398;28;56285;-79
2023/12/28 01:46:52;;;;;;;;;2.33;2.33;;;;;22.59;46.93;101218.59;4940941;28;45342;-79
2023/12/28 01:49:17;;;;;;;;;2.00;2.00;;;;;22.50;46.64;101213.38;4940811;28;45473;-80
2023/12/28 01:51:45;;;;;;;;;2.67;1.67;;;;;22.54;46.38;101218.31;4940310;28;46154;-79
2023/12/28 01:54:11;;;;;;;;;1.33;1.00;;;;;22.54;46.13;101226.25;4940655;28;45376;-80
2023/12/28 01:56:37;;;;;;;;;1.67;1.67;;;;;22.47;46.65;101203.13;4940687;28;45282;-79
2023/12/28 01:59:02;;;;;;;;;0.67;0.67;;;;;22.40;46.45;101186.25;4940554;28;45376;-79
2023/12/28 02:01:28;;;;;;;;;3.33;2.00;;;;;22.61;46.29;101229.91;4940315;28;46156;-79
2023/12/28 02:03:55;;;;;;;;;1.00;1.00;;;;;22.66;46.68;101237.31;4940613;28;45670;-79
2023/12/28 02:06:23;;;;;;;;;0.67;0.67;;;;;22.52;46.38;101210.53;4940211;28;45369;-79
2023/12/28 02:08:48;;;;;;;;;0.67;0.67;;;;;22.55;46.07;101215.50;4940320;28;45473;-79
2023/12/28 02:11:14;;;;;;;;;2.67;2.67;;;;;22.60;46.72;101221.09;4940258;28;45362;-80
2023/12/28 02:13:39;;;;;;;;;3.33;2.00;;;;;22.61;46.35;101220.09;4940145;28;45493;-79
2023/12/28 02:16:24;;;;;;;;;1.67;1.67;;;;;22.66;46.19;101235.50;4939080;28;45442;-79
2023/12/28 02:18:51;;;;;;;;;3.67;2.67;;;;;22.66;46.37;101235.50;4940380;28;45383;-79
2023/12/28 02:21:19;;;;;;;;;3.00;1.67;;;;;22.62;46.17;101231.53;4939758;28;45374;-79
2023/12/28 02:23:48;;;;;;;;;1.67;1.33;;;;;22.61;46.13;101227.25;4940200;28;45365;-78
2023/12/28 02:26:17;;;;;;;;;2.00;2.00;;;;;22.65;46.59;101241.78;4940268;28;45321;-79
2023/12/28 02:28:45;;;;;;;;;2.00;2.00;;;;;22.37;46.42;101191.91;4940186;28;45364;-80
2023/12/28 02:31:19;;;;;;;;;1.00;0.67;;;;;22.49;46.18;101210.88;4939954;28;46552;-79
2023/12/28 02:33:50;;;;;;;;;3.33;2.67;;;;;22.31;46.12;101185.47;4939949;28;45336;-79
2023/12/28 02:36:22;;;;;;;;;2.67;1.67;;;;;22.66;46.64;101240.81;4939726;28;45319;-79
2023/12/28 02:38:49;;;;;;;;;3.33;2.00;;;;;22.49;46.37;101221.50;4940016;28;45392;-78
2023/12/28 02:41:15;;;;;;;;;2.00;2.00;;;;;22.61;46.03;101237.84;4939669;28;46210;-80
2023/12/28 02:43:40;;;;;;;;;0.33;0.33;;;;;22.67;46.30;101252.22;4939923;28;45376;-79
2023/12/28 02:46:05;;;;;;;;;3.67;2.00;;;;;22.49;46.17;101229.44;4939905;28;45770;-79
2023/12/28 02:48:31;;;;;;;;;2.33;1.67;;;;;22.68;46.58;101253.88;4938425;28;46695;-79
2023/12/28 02:50:56;;;;;;;;;3.00;2.00;;;;;22.67;46.28;101255.69;4938086;28;47175;-80
2023/12/28 02:53:21;;;;;;;;;2.33;2.00;;;;;22.57;46.51;101241.84;4938538;28;46248;-79
2023/12/28 02:55:47;;;;;;;;;3.67;1.67;;;;;22.29;46.09;101198.06;4939325;28;54849;-79
2023/12/28 02:58:12;;;;;;;;;2.67;2.33;;;;;22.67;45.90;101268.13;4939737;28;45573;-79
2023/12/28 03:00:37;;;;;;;;;2.00;2.00;;;;;22.61;46.49;101251.13;4939617;28;45275;-79
2023/12/28 03:03:03;;;;;;;;;4.67;1.67;;;;;22.62;45.79;101247.44;4939656;28;45389;-79
2023/12/28 03:05:28;;;;;;;;;1.67;1.00;;;;;22.67;46.00;101258.34;4939428;28;45349;-79
2023/12/28 03:07:55;;;;;;;;;2.67;1.67;;;;;22.62;46.52;101245.63;4939139;28;53719;-79
2023/12/28 03:10:21;;;;;;;;;1.67;1.67;;;;;22.58;46.26;101240.84;4939151;28;46581;-78
2023/12/28 03:12:46;;;;;;;;;2.00;2.00;;;;;22.52;46.02;101221.16;4939138;28;45362;-79
2023/12/28 03:15:12;;;;;;;;;1.67;0.33;;;;;22.50;45.83;101212.53;4939322;28;46596;-79
2023/12/28 03:17:38;;;;;;;;;1.67;0.67;;;;;22.60;46.01;101231.72;4939460;28;45385;-79
2023/12/28 03:20:03;;;;;;;;;4.67;2.00;;;;;22.67;46.15;101252.22;4938790;28;46202;-79
2023/12/28 03:22:29;;;;;;;;;0.67;0.67;;;;;22.67;46.28;101253.03;4939295;28;45622;-79
2023/12/28 03:24:55;;;;;;;;;3.67;2.67;;;;;22.67;46.02;101250.41;4938116;28;45379;-79
2023/12/28 03:27:20;;;;;;;;;2.67;1.67;;;;;22.66;46.38;101248.75;4939351;28;45403;-79
2023/12/28 03:29:46;;;;;;;;;2.33;1.33;;;;;22.41;45.89;101209.09;4939217;28;46044;-79
2023/12/28 03:32:11;;;;;;;;;2.67;1.67;;;;;22.67;46.36;101254.88;4939165;28;45469;-80
2023/12/28 03:34:37;;;;;;;;;2.00;2.00;;;;;22.61;46.17;101243.97;4938945;28;45411;-79
2023/12/28 03:37:02;;;;;;;;;1.33;1.33;;;;;22.67;46.07;101249.56;4939255;28;45306;-79
2023/12/28 03:39:28;;;;;;;;;0.33;0.33;;;;;22.47;46.17;101216.38;4939019;28;46476;-80
2023/12/28 03:41:53;;;;;;;;;3.67;0.67;;;;;22.67;45.85;101246.91;4938942;28;45282;-79
2023/12/28 03:44:22;;;;;;;;;1.67;1.33;;;;;22.66;46.33;101237.31;4939302;28;45272;-79
2023/12/28 03:46:48;;;;;;;;;2.67;0.67;;;;;22.55;46.32;101222.63;4939023;28;45453;-80
2023/12/28 03:49:18;;;;;;;;;2.00;1.50;;;;;22.67;45.80;101238.94;4938428;28;47024;-79
2023/12/28 03:51:44;;;;;;;;;0.67;0.67;;;;;22.46;46.27;101214.72;4938934;28;45310;-79
2023/12/28 03:54:09;;;;;;;;;4.33;2.00;;;;;22.52;46.07;101213.19;4939036;28;45418;-79
2023/12/28 03:56:35;;;;;;;;;2.00;0.67;;;;;22.66;45.84;101235.50;4938905;28;45423;-79
2023/12/28 03:59:01;;;;;;;;;3.00;1.67;;;;;22.66;46.03;101243.47;4938489;28;46336;-79
2023/12/28 04:01:26;;;;;;;;;1.33;1.33;;;;;22.57;46.37;101218.81;4938689;28;45342;-79
2023/12/28 04:03:51;;;;;;;;;2.67;1.33;;;;;22.42;46.37;101191.38;4938246;28;45279;-79
2023/12/28 04:06:17;;;;;;;;;3.00;1.67;;;;;22.64;45.88;101229.53;4938494;28;45356;-79
2023/12/28 04:08:42;;;;;;;;;3.33;2.33;;;;;22.50;46.06;101209.91;4938031;28;52139;-78
2023/12/28 04:11:08;;;;;;;;;2.67;1.67;;;;;22.53;45.73;101220.16;4938442;28;45347;-79
2023/12/28 04:13:33;;;;;;;;;2.67;0.67;;;;;22.32;45.88;101186.28;4938454;28;45383;-79
2023/12/28 04:15:59;;;;;;;;;0.67;0.67;;;;;22.63;46.38;101228.72;4938674;28;45457;-79
2023/12/28 04:18:24;;;;;;;;;0.33;0.33;;;;;22.45;46.22;101201.63;4938008;28;46307;-79
2023/12/28 04:20:49;;;;;;;;;3.67;1.67;;;;;22.65;45.93;101230.34;4937342;28;45966;-79
2023/12/28 04:23:15;;;;;;;;;0.33;0.00;;;;;22.58;46.26;101230.25;4938594;28;45363;-79
2023/12/28 04:25:41;;;;;;;;;1.67;1.67;;;;;22.60;46.29;101237.03;4938763;28;45384;-79
2023/12/28 04:28:07;;;;;;;;;2.00;1.00;;;;;22.65;45.80;101247.09;4938451;28;45422;-79
2023/12/28 04:30:33;;;;;;;;;1.33;1.33;;;;;22.66;45.89;101248.75;4938246;28;45279;-79
2023/12/28 04:32:58;;;;;;;;;4.67;0.67;;;;;22.65;45.63;101246.25;4938428;28;45364;-79
2023/12/28 04:35:23;;;;;;;;;1.00;1.00;;;;;22.59;45.66;101237.19;4938491;28;45352;-79
2023/12/28 04:37:49;;;;;;;;;1.00;1.00;;;;;22.64;46.40;101253.38;4938151;28;46547;-79
2023/12/28 04:40:14;;;;;;;;;1.67;0.67;;;;;22.60;46.33;101246.78;4938190;28;45375;-79
2023/12/28 04:42:40;;;;;;;;;1.00;1.00;;;;;22.46;46.21;101219.19;4938355;28;45419;-78
2023/12/28 04:45:06;;;;;;;;;3.00;2.00;;;;;22.65;46.37;101243.63;4938405;28;45346;-79
2023/12/28 04:47:32;;;;;;;;;0.67;0.67;;;;;22.63;46.32;101244.63;4937546;28;47181;-79
2023/12/28 04:49:57;;;;;;;;;3.00;1.00;;;;;22.56;45.96;101235.69;4938078;28;45414;-79
2023/12/28 04:52:22;;;;;;;;;0.67;0.67;;;;;22.35;45.94;101210.63;4938212;28;45410;-79
2023/12/28 04:54:48;;;;;;;;;1.00;0.67;;;;;22.47;46.21;101240.22;4937806;28;53698;-79
2023/12/28 04:57:13;;;;;;;;;2.00;2.00;;;;;22.55;46.11;101238.53;4937535;28;54587;-78
2023/12/28 04:59:39;;;;;;;;;2.33;1.00;;;;;22.62;46.37;101263.34;4937981;28;45510;-80
2023/12/28 05:02:04;;;;;;;;;1.00;1.00;;;;;22.52;46.36;101245.84;4937607;28;45387;-80
2023/12/28 05:04:30;;;;;;;;;1.00;1.00;;;;;22.43;45.79;101232.81;4937909;28;45287;-80
2023/12/28 05:06:55;;;;;;;;;0.67;0.67;;;;;22.58;45.66;101265.53;4937778;28;45349;-79
2023/12/28 05:09:20;;;;;;;;;1.00;1.00;;;;;22.52;46.15;101255.63;4937559;28;45290;-80
2023/12/28 05:11:46;;;;;;;;;3.67;1.33;;;;;22.63;45.91;101267.66;4937576;28;45323;-79
2023/12/28 05:14:11;;;;;;;;;4.33;1.67;;;;;22.44;45.69;101242.41;4937520;28;52447;-79
2023/12/28 05:16:36;;;;;;;;;1.33;1.33;;;;;22.61;46.16;101270.47;4936432;28;45973;-79
2023/12/28 05:19:02;;;;;;;;;0.67;0.00;;;;;22.63;46.01;101276.47;4937663;28;45287;-79
2023/12/28 05:21:27;;;;;;;;;0.00;0.00;;;;;22.49;45.73;101253.31;4937673;28;45406;-80
2023/12/28 05:23:53;;;;;;;;;0.33;0.33;;;;;22.63;45.86;101267.66;4937795;28;45380;-81
2023/12/28 05:26:18;;;;;;;;;3.00;1.00;;;;;22.31;45.69;101224.41;4937696;28;46505;-79
2023/12/28 05:28:43;;;;;;;;;2.33;0.67;;;;;22.62;45.79;101266.00;4952402;28;46187;-79
2023/12/28 05:31:08;;;;;;;;;1.33;1.33;;;;;22.53;45.65;101251.97;4937387;28;45291;-80
2023/12/28 05:33:34;;;;;;;;;1.00;0.67;;;;;22.57;45.66;101265.69;4937852;28;45292;-80
2023/12/28 05:35:59;;;;;;;;;1.67;1.67;;;;;22.63;45.92;101278.28;4936818;28;60406;-80
2023/12/28 05:38:25;;;;;;;;;1.00;1.00;;;;;22.51;45.71;101248.66;4937267;28;45217;-80
2023/12/28 05:40:50;;;;;;;;;3.00;1.33;;;;;22.48;45.75;101251.66;4935716;28;54096;-79
2023/12/28 05:43:15;;;;;;;;;0.67;0.00;;;;;22.50;46.06;101255.81;4937561;28;45314;-79
2023/12/28 05:45:41;;;;;;;;;1.33;1.00;;;;;22.62;45.75;101271.31;4937346;28;45347;-79
2023/12/28 05:48:07;;;;;;;;;2.00;0.67;;;;;22.58;46.11;101259.41;4937270;28;45362;-80
2023/12/28 05:50:32;;;;;;;;;2.67;1.67;;;;;22.53;46.38;101259.94;4937644;28;45221;-80
2023/12/28 05:52:57;;;;;;;;;1.67;1.67;;;;;22.46;45.88;101238.56;4937350;28;45241;-80
2023/12/28 05:55:22;;;;;;;;;0.67;0.67;;;;;22.38;46.18;101236.78;4936876;28;54393;-79
2023/12/28 05:57:48;;;;;;;;;0.67;0.67;;;;;22.52;46.45;101266.22;4937097;28;48132;-79
2023/12/28 06:00:14;;;;;;;;;0.67;0.67;;;;;22.56;46.14;101270.16;4937033;28;45550;-80
2023/12/28 06:02:40;;;;;;;;;0.00;0.00;;;;;22.60;46.38;101279.44;4937508;28;45521;-80
2023/12/28 06:05:06;;;;;;;;;0.75;0.75;;;;;22.61;45.70;101281.09;4936929;28;46707;-79
2023/12/28 06:07:31;;;;;;;;;1.00;1.00;;;;;22.44;45.97;101260.94;4937056;28;45428;-79
2023/12/28 06:09:56;;;;;;;;;0.33;0.00;;;;;22.60;45.71;101282.09;4937118;28;45604;-79
2023/12/28 06:12:22;;;;;;;;;1.00;1.00;;;;;22.44;46.02;101248.53;4936389;28;50450;-79
2023/12/28 06:14:47;;;;;;;;;1.00;1.00;;;;;22.51;45.64;101265.41;4936605;28;47134;-79
2023/12/28 06:17:15;;;;;;;;;0.67;0.33;;;;;22.37;45.78;101251.06;4935682;28;45354;-79
2023/12/28 06:19:40;;;;;;;;;1.00;1.00;;;;;22.20;46.06;101217.69;4937155;28;45513;-79
2023/12/28 06:22:05;;;;;;;;;1.33;0.00;;;;;21.87;45.84;101166.44;4937064;28;45601;-79
2023/12/28 06:24:31;;;;;;;;;1.00;1.00;;;;;22.47;46.00;101273.88;4936401;28;53905;-79
2023/12/28 06:26:56;;;;;;;;;0.67;0.67;;;;;22.58;45.52;101278.81;4936989;28;45414;-79
2023/12/28 06:29:21;;;;;;;;;3.00;1.33;;;;;22.40;46.15;101258.66;4940034;28;45398;-80
2023/12/28 06:31:47;;;;;;;;;1.00;1.00;;;;;22.55;45.45;101296.88;4940246;28;45577;-80
2023/12/28 06:34:12;;;;;;;;;1.00;0.33;;;;;22.51;45.94;101283.13;4940000;28;47190;-80
2023/12/28 06:36:37;;;;;;;;;0.67;0.67;;;;;22.60;45.82;101291.88;4939926;28;45342;-79
2023/12/28 06:39:03;;;;;;;;;1.00;1.00;;;;;22.45;45.83;101282.00;4940033;28;45399;-80
2023/12/28 06:41:28;;;;;;;;;0.67;0.67;;;;;22.46;45.71;101278.34;4940128;28;45409;-80
2023/12/28 06:43:54;;;;;;;;;0.67;0.67;;;;;22.53;45.52;101294.41;4939509;28;47775;-79
2023/12/28 06:46:19;;;;;;;;;0.00;0.00;;;;;22.39;46.04;101274.72;4939974;28;45399;-80
2023/12/28 06:48:45;;;;;;;;;1.00;1.00;;;;;22.60;46.06;101311.28;4939910;28;45364;-79
2023/12/28 06:51:17;;;;;;;;;1.67;0.00;;;;;22.60;45.49;101302.50;4940023;28;45407;-79
2023/12/28 06:53:43;;;;;;;;;0.00;0.00;;;;;22.46;45.44;101286.28;4939879;28;46261;-79
2023/12/28 06:56:09;;;;;;;;;0.00;0.00;;;;;22.41;45.85;101283.34;4939464;28;45358;-79
2023/12/28 06:58:34;;;;;;;;;0.33;0.33;;;;;22.50;45.67;101294.75;4939692;28;45328;-79
2023/12/28 07:01:03;;;;;;;;;1.33;0.00;;;;;22.46;45.36;101278.34;4939566;28;45282;-80
2023/12/28 07:03:30;;;;;;;;;0.33;0.33;;;;;22.60;45.38;101303.31;4939832;28;45453;-80
2023/12/28 07:05:55;;;;;;;;;0.67;0.67;;;;;22.45;45.40;101268.75;4939531;28;46080;-79
2023/12/28 07:08:21;;;;;;;;;1.67;1.00;;;;;22.60;46.00;101305.97;4939539;28;45286;-78
2023/12/28 07:10:46;;;;;;;;;1.00;1.00;;;;;22.45;45.51;101275.88;4937549;28;49913;-79
2023/12/28 07:13:11;;;;;;;;;2.67;0.67;;;;;21.99;45.66;101203.19;4939171;28;46402;-79
2023/12/28 07:15:36;;;;;;;;;1.00;0.67;;;;;22.50;45.95;101286.78;4939818;28;45367;-79
2023/12/28 07:18:02;;;;;;;;;1.00;0.00;;;;;22.60;45.77;101313.09;4939754;28;45378;-79
2023/12/28 07:20:27;;;;;;;;;2.33;1.00;;;;;22.40;45.45;101290.47;4939790;28;45308;-79
2023/12/28 07:22:53;;;;;;;;;0.00;0.00;;;;;22.59;45.56;101311.44;4939383;28;63589;-79
2023/12/28 07:25:18;;;;;;;;;0.33;0.33;;;;;22.55;45.75;101307.47;4938186;28;45371;-79
2023/12/28 07:27:43;;;;;;;;;2.33;1.00;;;;;22.44;46.12;101293.59;4940048;28;45449;-79
2023/12/28 07:30:10;;;;;;;;;1.00;0.00;;;;;22.46;45.79;101296.91;4940079;28;45339;-79
2023/12/28 07:32:35;;;;;;;;;0.67;0.67;;;;;22.59;45.97;101325.53;4939607;28;45521;-80
2023/12/28 07:35:00;;;;;;;;;0.33;0.33;;;;;22.58;45.59;101318.59;4939428;28;45338;-78
2023/12/28 07:37:26;;;;;;;;;0.33;0.00;;;;;22.57;45.64;101314.25;4938288;28;45420;-79
2023/12/28 07:39:53;;;;;;;;;1.33;0.67;;;;;22.50;46.08;101306.19;4938531;28;45458;-78
2023/12/28 07:42:18;;;;;;;;;1.67;0.00;;;;;22.44;45.96;101288.31;4938708;28;46260;-77
2023/12/28 07:44:44;;;;;;;;;3.33;0.67;;;;;22.52;46.00;101308.66;4939697;28;45334;-82
2023/12/28 07:47:09;;;;;;;;;0.33;0.33;;;;;22.46;46.20;101296.06;4939627;28;45240;-81
2023/12/28 07:49:34;;;;;;;;;1.33;0.67;;;;;22.54;46.12;101313.78;4939343;28;45427;-79
2023/12/28 07:52:00;;;;;;;;;3.67;0.67;;;;;22.55;45.97;101321.56;4939280;28;47212;-76
2023/12/28 07:54:25;;;;;;;;;1.00;1.00;;;;;22.45;45.97;101311.19;4936872;28;45794;-79
2023/12/28 07:56:50;;;;;;;;;1.67;1.00;;;;;22.43;46.23;101304.41;4936803;28;49488;-79
2023/12/28 07:59:15;;;;;;;;;0.67;0.67;;;;;22.37;46.16;101295.28;4938129;28;45273;-75
2023/12/28 08:01:42;;;;;;;;;0.33;0.00;;;;;22.57;46.02;101324.03;4938249;28;46984;-78
2023/12/28 08:04:07;;;;;;;;;1.00;1.00;;;;;22.61;46.76;101334.13;4938801;28;45355;-78
2023/12/28 08:06:32;;;;;;;;;1.33;1.33;;;;;22.58;46.51;101318.59;4938637;28;45290;-77
2023/12/28 08:09:01;;;;;;;;;0.00;0.00;;;;;22.61;46.41;101325.38;4938282;28;45482;-80
2023/12/28 08:11:27;;;;;;;;;4.67;1.33;;;;;22.49;46.88;101301.03;4938204;28;46180;-80
2023/12/28 08:13:52;;;;;;;;;1.33;0.33;;;;;22.63;46.39;101328.66;4938035;28;45477;-82
2023/12/28 08:16:18;;;;;;;;;2.67;0.67;;;;;22.63;46.58;101331.31;4938417;28;45470;-83
2023/12/28 08:18:43;;;;;;;;;1.00;1.00;;;;;22.59;46.43;101324.69;4938333;28;48679;-83
2023/12/28 08:21:08;;;;;;;;;2.00;0.67;;;;;22.64;46.73;101330.31;4938323;28;45361;-79
2023/12/28 08:23:34;;;;;;;;;2.33;1.33;;;;;22.53;46.19;101310.31;4938237;28;45331;-81
2023/12/28 08:25:59;;;;;;;;;0.33;0.33;;;;;22.66;46.68;101330.97;4937849;28;45331;-79
2023/12/28 08:28:25;;;;;;;;;0.67;0.67;;;;;22.57;46.07;101316.91;4938760;28;45556;-81
